createdAt,value
2019-03-25T00:02:18.310Z,66.51
2019-03-25T00:04:44.784Z,66.96
2019-03-25T00:07:11.465Z,67.58
2019-03-25T00:09:37.793Z,67.71
2019-03-25T00:12:04.212Z,67.81
2019-03-25T00:14:31.029Z,67.30
2019-03-25T00:16:57.671Z,67.68
2019-03-25T00:19:24.416Z,67.09
2019-03-25T00:21:50.745Z,66.90
2019-03-25T00:24:17.076Z,66.16
2019-03-25T00:26:43.434Z,65.49
2019-03-25T00:29:10.078Z,65.04
2019-03-25T00:31:36.433Z,63.33
2019-03-25T00:34:03.255Z,62.63
2019-03-25T00:36:29.591Z,62.16
2019-03-25T00:38:55.930Z,61.26
2019-03-25T00:41:22.672Z,60.74
2019-03-25T00:43:49.084Z,60.25
2019-03-25T00:46:15.414Z,60.27
2019-03-25T00:48:41.741Z,60.10
2019-03-25T00:51:08.056Z,59.58
2019-03-25T00:53:34.385Z,58.70
2019-03-25T00:56:00.744Z,58.70
2019-03-25T00:58:27.069Z,58.67
2019-03-25T01:00:53.393Z,58.92
2019-03-25T01:03:19.720Z,58.10
2019-03-25T01:05:46.603Z,58.43
2019-03-25T01:08:12.960Z,58.49
2019-03-25T01:10:40.113Z,58.55
2019-03-25T01:13:06.784Z,58.65
2019-03-25T01:15:33.432Z,59.39
2019-03-25T01:18:00.251Z,58.73
2019-03-25T01:20:26.652Z,59.11
2019-03-25T01:22:53.426Z,58.90
2019-03-25T01:25:19.974Z,59.18
2019-03-25T01:27:46.600Z,59.04
2019-03-25T01:30:13.547Z,58.93
2019-03-25T01:32:40.184Z,59.26
2019-03-25T01:35:06.887Z,59.27
2019-03-25T01:37:33.589Z,58.82
2019-03-25T01:39:59.938Z,59.03
2019-03-25T01:42:26.271Z,59.01
2019-03-25T01:44:52.971Z,59.18
2019-03-25T01:47:19.618Z,59.05
2019-03-25T01:49:46.361Z,59.30
2019-03-25T01:52:12.794Z,58.83
2019-03-25T01:54:39.141Z,58.78
2019-03-25T01:57:05.790Z,58.28
2019-03-25T01:59:32.146Z,58.03
2019-03-25T02:01:58.522Z,58.12
2019-03-25T02:04:25.165Z,58.00
2019-03-25T02:06:52.153Z,58.18
2019-03-25T02:09:18.537Z,58.41
2019-03-25T02:11:44.877Z,58.36
2019-03-25T02:14:11.283Z,58.31
2019-03-25T02:16:37.664Z,58.66
2019-03-25T02:19:04.407Z,58.96
2019-03-25T02:21:30.721Z,59.14
2019-03-25T02:23:58.142Z,59.84
2019-03-25T02:26:24.451Z,60.08
2019-03-25T02:28:50.757Z,60.14
2019-03-25T02:31:17.083Z,60.81
2019-03-25T02:33:43.404Z,60.91
2019-03-25T02:36:09.749Z,61.69
2019-03-25T02:38:36.069Z,62.54
2019-03-25T02:41:02.490Z,62.82
2019-03-25T02:43:28.821Z,63.12
2019-03-25T02:45:55.213Z,63.39
2019-03-25T02:48:21.910Z,63.82
2019-03-25T02:50:48.274Z,63.81
2019-03-25T02:53:14.618Z,63.69
2019-03-25T02:55:42.814Z,63.43
2019-03-25T02:58:09.283Z,63.50
2019-03-25T03:00:37.470Z,63.54
2019-03-25T03:03:05.781Z,63.62
2019-03-25T03:05:32.108Z,63.55
2019-03-25T03:07:58.410Z,63.18
2019-03-25T03:10:25.139Z,62.94
2019-03-25T03:12:51.470Z,62.97
2019-03-25T03:15:18.200Z,62.95
2019-03-25T03:17:44.575Z,62.86
2019-03-25T03:20:10.920Z,62.90
2019-03-25T03:22:37.272Z,63.04
2019-03-25T03:25:03.921Z,63.13
2019-03-25T03:27:30.578Z,62.99
2019-03-25T03:29:57.215Z,62.81
2019-03-25T03:32:23.858Z,62.47
2019-03-25T03:34:50.471Z,61.36
2019-03-25T03:37:16.930Z,60.86
2019-03-25T03:39:43.272Z,60.36
2019-03-25T03:42:09.886Z,60.38
2019-03-25T03:44:36.407Z,60.45
2019-03-25T03:47:02.773Z,60.38
2019-03-25T03:49:29.119Z,59.98
2019-03-25T03:51:56.336Z,60.39
2019-03-25T03:54:22.650Z,59.93
2019-03-25T03:56:50.340Z,60.17
2019-03-25T03:59:16.854Z,59.89
2019-03-25T04:01:43.205Z,60.01
2019-03-25T04:04:09.523Z,59.75
2019-03-25T04:06:36.275Z,59.74
2019-03-25T04:09:04.496Z,59.39
2019-03-25T04:11:30.914Z,59.63
2019-03-25T04:13:57.535Z,59.60
2019-03-25T04:16:23.899Z,59.58
2019-03-25T04:18:50.249Z,59.74
2019-03-25T04:21:16.719Z,59.71
2019-03-25T04:23:46.298Z,59.38
2019-03-25T04:26:27.226Z,59.43
2019-03-25T04:28:39.905Z,59.28
2019-03-25T04:31:06.240Z,58.97
2019-03-25T04:33:32.610Z,59.07
2019-03-25T04:35:58.965Z,59.01
2019-03-25T04:38:25.299Z,59.45
2019-03-25T04:40:51.636Z,59.32
2019-03-25T04:43:18.004Z,59.29
2019-03-25T04:45:44.440Z,59.34
2019-03-25T04:48:10.767Z,59.42
2019-03-25T04:50:37.611Z,59.67
2019-03-25T04:53:04.248Z,59.55
2019-03-25T04:55:30.572Z,59.88
2019-03-25T04:57:57.214Z,59.84
2019-03-25T05:00:35.628Z,59.92
2019-03-25T05:03:02.552Z,59.93
2019-03-25T05:05:29.219Z,60.46
2019-03-25T05:07:55.958Z,60.60
2019-03-25T05:10:22.727Z,60.85
2019-03-25T05:12:49.146Z,60.58
2019-03-25T05:15:15.503Z,61.11
2019-03-25T05:17:41.840Z,60.75
2019-03-25T05:20:08.580Z,60.40
2019-03-25T05:22:34.957Z,60.51
2019-03-25T05:25:01.669Z,60.57
2019-03-25T05:27:27.995Z,60.54
2019-03-25T05:29:54.399Z,59.76
2019-03-25T05:32:20.837Z,60.06
2019-03-25T05:34:47.428Z,58.84
2019-03-25T05:37:14.103Z,58.96
2019-03-25T05:39:40.710Z,59.03
2019-03-25T05:42:07.083Z,58.28
2019-03-25T05:44:33.441Z,58.33
2019-03-25T05:46:59.799Z,58.24
2019-03-25T05:49:26.447Z,57.88
2019-03-25T05:51:53.086Z,56.94
2019-03-25T05:54:19.415Z,57.40
2019-03-25T05:56:46.373Z,56.17
2019-03-25T05:59:12.700Z,55.47
2019-03-25T06:01:39.008Z,56.60
2019-03-25T06:04:05.655Z,57.28
2019-03-25T06:06:32.501Z,57.31
2019-03-25T06:08:58.857Z,57.56
2019-03-25T06:11:25.214Z,57.61
2019-03-25T06:13:51.535Z,57.44
2019-03-25T06:16:18.517Z,56.43
2019-03-25T06:18:44.907Z,56.94
2019-03-25T06:21:11.377Z,56.56
2019-03-25T06:23:38.416Z,55.96
2019-03-25T06:26:05.229Z,55.24
2019-03-25T06:28:31.832Z,55.40
2019-03-25T06:30:58.399Z,55.01
2019-03-25T06:33:24.769Z,54.87
2019-03-25T06:35:51.103Z,54.50
2019-03-25T06:38:17.784Z,53.20
2019-03-25T06:40:44.128Z,52.81
2019-03-25T06:43:10.495Z,52.65
2019-03-25T06:45:36.930Z,51.36
2019-03-25T06:48:03.632Z,50.85
2019-03-25T06:50:30.041Z,50.35
2019-03-25T06:52:56.415Z,50.68
2019-03-25T06:55:22.875Z,50.61
2019-03-25T06:57:49.496Z,50.72
2019-03-25T07:00:16.707Z,50.90
2019-03-25T07:02:43.811Z,50.63
2019-03-25T07:05:11.765Z,50.87
2019-03-25T07:07:38.103Z,50.95
2019-03-25T07:10:06.616Z,50.71
2019-03-25T07:12:33.017Z,51.13
2019-03-25T07:14:59.828Z,50.47
2019-03-25T07:17:26.173Z,50.17
2019-03-25T07:19:52.527Z,50.66
2019-03-25T07:22:19.357Z,51.04
2019-03-25T07:24:45.764Z,50.72
2019-03-25T07:27:12.402Z,51.16
2019-03-25T07:29:39.136Z,50.72
2019-03-25T07:32:05.519Z,51.25
2019-03-25T07:34:32.116Z,53.03
2019-03-25T07:36:58.956Z,53.82
2019-03-25T07:39:25.282Z,55.74
2019-03-25T07:41:51.653Z,60.01
2019-03-25T07:44:18.089Z,62.55
2019-03-25T07:46:44.492Z,62.57
2019-03-25T07:49:11.236Z,62.52
2019-03-25T07:51:37.659Z,63.62
2019-03-25T07:54:04.002Z,64.83
2019-03-25T07:56:30.378Z,63.60
2019-03-25T07:58:57.177Z,63.84
2019-03-25T08:01:23.902Z,62.56
2019-03-25T08:03:50.275Z,61.38
2019-03-25T08:06:16.714Z,61.74
2019-03-25T08:08:43.035Z,62.69
2019-03-25T08:11:09.408Z,62.71
2019-03-25T08:13:35.701Z,62.51
2019-03-25T08:16:03.454Z,63.85
2019-03-25T08:18:30.259Z,62.47
2019-03-25T08:20:57.001Z,62.38
2019-03-25T08:23:23.380Z,61.70
2019-03-25T08:25:49.674Z,61.96
2019-03-25T08:28:16.031Z,62.96
2019-03-25T08:30:42.366Z,67.67
2019-03-25T08:33:08.705Z,69.68
2019-03-25T08:35:35.021Z,72.82
2019-03-25T08:38:01.356Z,77.48
2019-03-25T08:40:27.833Z,79.02
2019-03-25T08:42:54.227Z,78.28
2019-03-25T08:45:20.592Z,78.68
2019-03-25T08:47:46.940Z,78.76
2019-03-25T08:50:13.296Z,77.46
2019-03-25T08:52:40.061Z,76.86
2019-03-25T08:55:06.752Z,76.83
2019-03-25T08:57:33.142Z,76.44
2019-03-25T08:59:59.872Z,76.37
2019-03-25T09:02:26.246Z,75.51
2019-03-25T09:04:52.685Z,76.21
2019-03-25T09:07:19.354Z,75.65
2019-03-25T09:09:45.836Z,75.32
2019-03-25T09:12:12.188Z,74.16
2019-03-25T09:14:38.564Z,75.00
2019-03-25T09:17:05.442Z,75.61
2019-03-25T09:19:31.843Z,74.32
2019-03-25T09:21:58.306Z,73.25
2019-03-25T09:24:24.930Z,73.47
2019-03-25T09:26:51.288Z,72.88
2019-03-25T09:29:17.642Z,72.45
2019-03-25T09:31:44.000Z,71.65
2019-03-25T09:34:11.934Z,72.45
2019-03-25T09:36:38.632Z,70.86
2019-03-25T09:39:07.271Z,71.64
2019-03-25T09:41:33.944Z,69.23
2019-03-25T09:44:00.277Z,67.75
2019-03-25T09:46:26.986Z,65.99
2019-03-25T09:48:53.427Z,64.68
2019-03-25T09:51:20.163Z,64.53
2019-03-25T09:53:47.562Z,63.65
2019-03-25T09:56:13.911Z,63.71
2019-03-25T09:58:40.610Z,63.60
2019-03-25T10:01:07.065Z,62.68
2019-03-25T10:03:33.897Z,61.86
2019-03-25T10:06:00.344Z,59.16
2019-03-25T10:08:27.140Z,60.05
2019-03-25T10:10:53.504Z,60.86
2019-03-25T10:13:20.008Z,60.56
2019-03-25T10:15:47.494Z,60.14
2019-03-25T10:18:14.272Z,58.62
2019-03-25T10:20:40.727Z,57.71
2019-03-25T10:23:07.344Z,53.97
2019-03-25T10:25:34.447Z,52.94
2019-03-25T10:28:00.929Z,51.84
2019-03-25T10:30:27.606Z,53.42
2019-03-25T10:32:53.998Z,56.94
2019-03-25T10:35:20.778Z,64.11
2019-03-25T10:37:47.234Z,70.27
2019-03-25T10:40:14.289Z,75.48
2019-03-25T10:42:41.715Z,75.94
2019-03-25T10:45:09.728Z,75.34
2019-03-25T10:47:36.264Z,71.99
2019-03-25T10:50:04.188Z,73.70
2019-03-25T10:52:30.660Z,72.22
2019-03-25T10:57:23.441Z,70.11
2019-03-25T10:59:50.078Z,69.43
2019-03-25T11:02:16.422Z,67.88
2019-03-25T11:04:43.434Z,65.64
2019-03-25T11:07:11.119Z,65.35
2019-03-25T11:09:37.763Z,60.74
2019-03-25T11:12:04.415Z,60.74
2019-03-25T11:14:30.821Z,58.17
2019-03-25T11:16:57.546Z,54.47
2019-03-25T11:19:23.935Z,52.29
2019-03-25T11:21:50.623Z,52.16
2019-03-25T11:24:17.341Z,51.84
2019-03-25T11:26:44.129Z,53.44
2019-03-25T11:29:10.845Z,53.06
2019-03-25T11:31:37.582Z,51.37
2019-03-25T11:34:04.001Z,51.79
2019-03-25T11:36:30.356Z,50.37
2019-03-25T11:38:56.688Z,50.79
2019-03-25T11:41:23.404Z,48.48
2019-03-25T11:43:50.203Z,45.93
2019-03-25T11:46:16.887Z,47.88
2019-03-25T11:48:43.260Z,48.90
2019-03-25T11:51:09.926Z,49.72
2019-03-25T11:53:36.450Z,53.28
2019-03-25T11:56:03.573Z,58.86
2019-03-25T11:58:30.405Z,58.97
2019-03-25T12:00:56.724Z,48.42
2019-03-25T12:03:24.214Z,46.83
2019-03-25T12:05:50.968Z,41.88
2019-03-25T12:08:18.778Z,37.94
2019-03-25T12:10:45.164Z,34.87
2019-03-25T12:13:11.874Z,31.45
2019-03-25T12:15:38.236Z,29.63
2019-03-25T12:18:04.636Z,28.80
2019-03-25T12:20:31.484Z,27.74
2019-03-25T12:22:57.784Z,28.62
2019-03-25T12:25:24.209Z,28.18
2019-03-25T12:27:50.880Z,27.74
2019-03-25T12:30:17.506Z,28.78
2019-03-25T12:32:43.820Z,31.30
2019-03-25T12:35:10.282Z,34.49
2019-03-25T12:37:36.625Z,32.56
2019-03-25T12:40:07.629Z,28.58
2019-03-25T12:42:33.315Z,33.40
2019-03-25T12:44:59.993Z,37.13
2019-03-25T12:47:27.698Z,34.30
2019-03-25T12:49:55.288Z,27.61
2019-03-25T12:52:22.067Z,24.36
2019-03-25T12:54:49.776Z,23.40
2019-03-25T12:57:16.455Z,24.18
2019-03-25T12:59:43.199Z,28.56
2019-03-25T13:02:09.865Z,31.22
2019-03-25T13:04:36.573Z,29.56
2019-03-25T13:07:03.346Z,28.55
2019-03-25T13:09:29.761Z,26.99
2019-03-25T13:11:56.198Z,25.24
2019-03-25T13:14:22.582Z,24.87
2019-03-25T13:16:49.021Z,24.87
2019-03-25T13:19:15.355Z,23.97
2019-03-25T13:21:41.716Z,20.78
2019-03-25T13:24:08.382Z,19.05
2019-03-25T13:27:05.331Z,23.30
2019-03-25T13:30:52.140Z,27.33
2019-03-25T13:34:42.542Z,29.23
2019-03-25T13:37:32.623Z,31.59
2019-03-25T13:40:41.658Z,34.86
2019-03-25T13:43:35.153Z,37.27
2019-03-25T13:46:05.792Z,41.46
2019-03-25T13:48:32.824Z,43.25
2019-03-25T13:50:59.593Z,44.34
2019-03-25T13:53:26.036Z,42.83
2019-03-25T13:55:52.832Z,40.76
2019-03-25T13:58:19.275Z,41.75
2019-03-25T14:00:46.050Z,40.97
2019-03-25T14:03:12.408Z,40.09
2019-03-25T14:05:40.092Z,40.11
2019-03-25T14:08:06.442Z,41.94
2019-03-25T14:10:33.184Z,45.58
2019-03-25T14:12:59.768Z,47.61
2019-03-25T14:15:27.266Z,48.74
2019-03-25T14:17:53.612Z,47.66
2019-03-25T14:20:20.055Z,45.99
2019-03-25T14:22:47.489Z,45.25
2019-03-25T14:25:13.843Z,44.67
2019-03-25T14:27:40.631Z,43.55
2019-03-25T14:30:14.314Z,44.16
2019-03-25T14:32:36.922Z,43.93
2019-03-25T14:35:06.385Z,44.05
2019-03-25T14:37:33.461Z,42.96
2019-03-25T14:39:59.838Z,43.68
2019-03-25T14:42:26.173Z,43.29
2019-03-25T14:44:52.618Z,46.59
2019-03-25T14:47:20.479Z,50.72
2019-03-25T14:49:46.826Z,52.99
2019-03-25T14:52:13.489Z,54.87
2019-03-25T14:54:40.225Z,56.19
2019-03-25T14:57:06.787Z,60.02
2019-03-25T14:59:33.180Z,64.71
2019-03-25T15:01:59.525Z,67.48
2019-03-25T15:04:27.318Z,68.71
2019-03-25T15:06:53.717Z,69.63
2019-03-25T15:09:20.088Z,68.50
2019-03-25T15:11:46.740Z,68.52
2019-03-25T15:14:13.041Z,68.26
2019-03-25T15:16:39.386Z,67.60
2019-03-25T15:19:05.741Z,66.98
2019-03-25T15:21:33.280Z,67.05
2019-03-25T15:23:59.643Z,67.92
2019-03-25T15:26:26.320Z,67.24
2019-03-25T15:28:53.081Z,67.34
2019-03-25T15:31:19.431Z,65.60
2019-03-25T15:33:46.789Z,64.35
2019-03-25T15:36:13.520Z,64.05
2019-03-25T15:38:40.139Z,63.33
2019-03-25T15:41:06.542Z,61.82
2019-03-25T15:43:32.903Z,61.97
2019-03-25T15:45:59.778Z,62.90
2019-03-25T15:48:26.136Z,62.80
2019-03-25T15:50:52.570Z,62.30
2019-03-25T15:53:19.890Z,62.26
2019-03-25T15:55:48.208Z,61.99
2019-03-25T15:58:21.707Z,61.89
2019-03-25T16:00:48.142Z,62.17
2019-03-25T16:03:11.315Z,62.45
2019-03-25T16:05:45.209Z,63.71
2019-03-25T16:08:13.926Z,62.42
2019-03-25T16:10:40.696Z,63.22
2019-03-25T16:13:09.393Z,63.01
2019-03-25T16:15:41.064Z,62.83
2019-03-25T16:18:08.400Z,62.39
2019-03-25T16:20:35.013Z,61.91
2019-03-25T16:23:01.387Z,61.12
2019-03-25T16:25:28.279Z,60.70
2019-03-25T16:27:54.718Z,62.34
2019-03-25T16:30:21.355Z,62.15
2019-03-25T16:32:47.990Z,62.47
2019-03-25T16:35:14.665Z,63.23
2019-03-25T16:37:41.496Z,63.48
2019-03-25T16:40:14.192Z,63.16
2019-03-25T16:42:40.596Z,62.83
2019-03-25T16:45:07.535Z,63.29
2019-03-25T16:47:33.904Z,63.72
2019-03-25T16:50:00.374Z,64.23
2019-03-25T16:52:26.856Z,63.29
2019-03-25T16:54:53.760Z,65.00
2019-03-25T16:57:20.512Z,64.88
2019-03-25T16:59:46.878Z,64.85
2019-03-25T17:02:13.262Z,66.22
2019-03-25T17:04:39.608Z,66.62
2019-03-25T17:07:08.080Z,67.71
2019-03-25T17:09:34.983Z,69.92
2019-03-25T17:12:01.824Z,71.73
2019-03-25T17:14:30.693Z,71.61
2019-03-25T17:16:57.145Z,71.40
2019-03-25T17:19:26.966Z,71.18
2019-03-25T17:21:58.073Z,71.04
2019-03-25T17:24:21.652Z,70.12
2019-03-25T17:26:47.980Z,70.12
2019-03-25T17:29:14.325Z,70.39
2019-03-25T17:31:40.659Z,71.12
2019-03-25T17:34:07.276Z,71.24
2019-03-25T17:36:33.903Z,71.96
2019-03-25T17:39:00.319Z,71.21
2019-03-25T17:41:27.003Z,71.96
2019-03-25T17:43:53.859Z,71.63
2019-03-25T17:46:20.575Z,71.51
2019-03-25T17:48:47.164Z,71.38
2019-03-25T17:51:15.080Z,71.64
2019-03-25T17:53:41.812Z,72.45
2019-03-25T17:56:08.541Z,73.15
2019-03-25T17:58:35.183Z,73.47
2019-03-25T18:01:05.207Z,73.31
2019-03-25T18:03:31.953Z,72.44
2019-03-25T18:05:59.421Z,72.74
2019-03-25T18:08:25.828Z,72.42
2019-03-25T18:10:52.706Z,72.06
2019-03-25T18:13:22.568Z,72.57
2019-03-25T18:15:47.711Z,71.87
2019-03-25T18:18:14.446Z,71.86
2019-03-25T18:20:41.171Z,73.08
2019-03-25T18:23:07.826Z,73.66
2019-03-25T18:25:34.166Z,73.09
2019-03-25T18:28:01.024Z,72.00
2019-03-25T18:30:32.449Z,72.80
2019-03-25T18:32:59.084Z,72.60
2019-03-25T18:35:26.473Z,73.38
2019-03-25T18:37:52.948Z,73.62
2019-03-25T18:40:19.316Z,73.35
2019-03-25T18:42:45.993Z,73.62
2019-03-25T18:45:12.892Z,73.82
2019-03-25T18:47:39.380Z,74.67
2019-03-25T18:50:06.519Z,74.25
2019-03-25T18:52:33.074Z,73.76
2019-03-25T18:55:00.443Z,74.02
2019-03-25T18:57:27.055Z,75.57
2019-03-25T18:59:53.432Z,75.79
2019-03-25T19:02:20.355Z,75.52
2019-03-25T19:04:46.888Z,75.50
2019-03-25T19:07:13.808Z,75.24
2019-03-25T19:09:40.489Z,75.37
2019-03-25T19:12:06.831Z,74.86
2019-03-25T19:14:33.349Z,74.56
2019-03-25T19:17:00.007Z,75.10
2019-03-25T19:19:26.657Z,75.04
2019-03-25T19:21:53.509Z,74.37
2019-03-25T19:24:20.375Z,74.31
2019-03-25T19:26:47.466Z,74.02
2019-03-25T19:29:14.009Z,74.04
2019-03-25T19:31:41.113Z,73.53
2019-03-25T19:34:08.136Z,73.32
2019-03-25T19:36:34.564Z,73.85
2019-03-25T19:39:00.980Z,74.53
2019-03-25T19:41:32.567Z,74.98
2019-03-25T19:43:58.075Z,74.42
2019-03-25T19:46:27.366Z,73.96
2019-03-25T19:48:53.702Z,74.58
2019-03-25T19:51:21.106Z,75.26
2019-03-25T19:53:47.536Z,75.60
2019-03-25T19:56:13.923Z,74.73
2019-03-25T19:58:40.802Z,75.00
2019-03-25T20:01:07.606Z,75.00
2019-03-25T20:03:34.752Z,74.28
2019-03-25T20:06:01.087Z,73.75
2019-03-25T20:08:27.728Z,73.87
2019-03-25T20:10:54.768Z,74.22
2019-03-25T20:13:21.138Z,74.25
2019-03-25T20:15:48.068Z,74.12
2019-03-25T20:18:14.538Z,74.62
2019-03-25T20:20:40.941Z,74.46
2019-03-25T20:23:07.534Z,75.23
2019-03-25T20:25:35.051Z,74.68
2019-03-25T20:28:01.942Z,75.29
2019-03-25T20:30:28.427Z,74.63
2019-03-25T20:32:54.781Z,74.88
2019-03-25T20:35:21.492Z,75.71
2019-03-25T20:37:48.827Z,76.48
2019-03-25T20:40:15.810Z,75.59
2019-03-25T20:42:43.796Z,75.72
2019-03-25T20:45:11.765Z,75.19
2019-03-25T20:47:38.430Z,75.38
2019-03-25T20:50:08.097Z,74.27
2019-03-25T20:52:34.492Z,74.54
2019-03-25T20:55:00.897Z,73.37
2019-03-25T20:57:27.304Z,72.38
2019-03-25T20:59:53.729Z,71.94
2019-03-25T21:02:20.292Z,72.25
2019-03-25T21:04:46.842Z,72.57
2019-03-25T21:07:15.863Z,72.15
2019-03-25T21:09:43.859Z,72.74
2019-03-25T21:12:10.297Z,72.26
2019-03-25T21:14:36.605Z,72.29
2019-03-25T21:17:03.054Z,72.01
2019-03-25T21:19:29.883Z,71.71
2019-03-25T21:21:56.229Z,72.23
2019-03-25T21:24:22.615Z,71.14
2019-03-25T21:26:48.973Z,71.20
2019-03-25T21:29:15.477Z,71.52
2019-03-25T21:31:42.000Z,72.29
2019-03-25T21:34:09.666Z,72.16
2019-03-25T21:36:36.839Z,72.61
2019-03-25T21:39:06.975Z,72.25
2019-03-25T21:41:33.787Z,72.95
2019-03-25T21:44:01.787Z,72.73
2019-03-25T21:46:28.901Z,72.92
2019-03-25T21:48:55.446Z,72.63
2019-03-25T21:51:21.877Z,72.30
2019-03-25T21:53:48.705Z,72.82
2019-03-25T21:56:15.477Z,72.63
2019-03-25T21:58:42.000Z,72.76
2019-03-25T22:01:08.649Z,73.77
2019-03-25T22:03:35.154Z,73.61
2019-03-25T22:06:01.830Z,72.96
2019-03-25T22:08:28.172Z,73.29
2019-03-25T22:10:54.892Z,72.91
2019-03-25T22:13:21.745Z,72.42
2019-03-25T22:15:48.114Z,73.47
2019-03-25T22:18:14.451Z,73.85
2019-03-25T22:20:40.843Z,73.89
2019-03-25T22:23:07.234Z,74.15
2019-03-25T22:25:33.905Z,73.02
2019-03-25T22:28:00.280Z,72.43
2019-03-25T22:30:26.984Z,72.41
2019-03-25T22:32:53.726Z,72.36
2019-03-25T22:35:20.091Z,72.06
2019-03-25T22:37:46.428Z,72.30
2019-03-25T22:40:13.321Z,73.48
2019-03-25T22:42:39.671Z,73.31
2019-03-25T22:45:07.513Z,73.00
2019-03-25T22:47:34.963Z,72.38
2019-03-25T22:50:02.720Z,73.13
2019-03-25T22:52:29.391Z,73.31
2019-03-25T22:54:56.223Z,73.94
2019-03-25T22:57:22.580Z,74.03
2019-03-25T22:59:49.186Z,74.16
2019-03-25T23:02:15.564Z,73.96
2019-03-25T23:04:41.955Z,73.15
2019-03-25T23:07:08.302Z,73.70
2019-03-25T23:09:35.028Z,74.33
2019-03-25T23:12:03.918Z,74.27
2019-03-25T23:14:30.276Z,73.64
2019-03-25T23:16:56.655Z,74.50
2019-03-25T23:19:23.018Z,74.23
2019-03-25T23:21:49.669Z,73.63
2019-03-25T23:24:16.012Z,74.06
2019-03-25T23:26:42.362Z,74.93
2019-03-25T23:29:09.063Z,75.87
2019-03-25T23:31:35.436Z,75.33
2019-03-25T23:34:01.787Z,75.10
2019-03-25T23:36:28.298Z,75.89
2019-03-25T23:38:54.611Z,76.16
2019-03-25T23:41:20.996Z,76.21
2019-03-25T23:43:49.194Z,76.04
2019-03-25T23:46:15.935Z,75.40
2019-03-25T23:48:42.681Z,75.51
2019-03-25T23:51:09.416Z,76.05
2019-03-25T23:53:35.770Z,76.53
2019-03-25T23:56:02.111Z,76.71
2019-03-25T23:58:36.422Z,77.15
